sensor_id;sensor_type;location;lat;lon;timestamp;pressure;altitude;pressure_sealevel;temperature;humidity
40155;BME280;25875;48.202;16.334;2022-10-04T00:01:51;99619.09;;;12.33;60.18
40155;BME280;25875;48.202;16.334;2022-10-04T00:04:23;99602.72;;;12.09;59.97
40155;BME280;25875;48.202;16.334;2022-10-04T00:06:58;99616.28;;;12.20;60.16
40155;BME280;25875;48.202;16.334;2022-10-04T00:09:32;99613.34;;;12.25;60.37
40155;BME280;25875;48.202;16.334;2022-10-04T00:12:02;99610.53;;;12.28;60.62
40155;BME280;25875;48.202;16.334;2022-10-04T00:14:34;99612.22;;;12.29;60.17
40155;BME280;25875;48.202;16.334;2022-10-04T00:17:08;99612.50;;;12.24;60.68
40155;BME280;25875;48.202;16.334;2022-10-04T00:19:41;99614.41;;;12.22;60.80
40155;BME280;25875;48.202;16.334;2022-10-04T00:22:20;99554.31;;;11.88;60.61
40155;BME280;25875;48.202;16.334;2022-10-04T00:25:19;99613.94;;;12.14;61.18
40155;BME280;25875;48.202;16.334;2022-10-04T00:30:36;99605.13;;;12.13;61.25
40155;BME280;25875;48.202;16.334;2022-10-04T00:33:04;99604.16;;;12.14;60.87
40155;BME280;25875;48.202;16.334;2022-10-04T00:35:47;99603.50;;;12.11;61.33
40155;BME280;25875;48.202;16.334;2022-10-04T00:38:16;99601.00;;;12.08;61.25
40155;BME280;25875;48.202;16.334;2022-10-04T00:40:56;99608.81;;;12.11;61.75
40155;BME280;25875;48.202;16.334;2022-10-04T00:43:29;99601.88;;;12.08;61.60
40155;BME280;25875;48.202;16.334;2022-10-04T00:46:02;99601.69;;;12.11;61.46
40155;BME280;25875;48.202;16.334;2022-10-04T00:48:37;99608.53;;;12.15;61.32
40155;BME280;25875;48.202;16.334;2022-10-04T00:51:13;99604.44;;;12.10;61.34
40155;BME280;25875;48.202;16.334;2022-10-04T00:53:50;99600.06;;;12.09;61.39
40155;BME280;25875;48.202;16.334;2022-10-04T00:56:25;99605.13;;;12.13;61.41
40155;BME280;25875;48.202;16.334;2022-10-04T00:59:18;99602.81;;;12.07;61.60
40155;BME280;25875;48.202;16.334;2022-10-04T01:01:52;99599.81;;;12.13;61.69
40155;BME280;25875;48.202;16.334;2022-10-04T01:04:27;99599.88;;;12.12;61.38
40155;BME280;25875;48.202;16.334;2022-10-04T01:06:59;99601.00;;;12.08;61.50
40155;BME280;25875;48.202;16.334;2022-10-04T01:09:29;99599.28;;;12.07;61.44
40155;BME280;25875;48.202;16.334;2022-10-04T01:12:03;99600.91;;;12.09;61.51
40155;BME280;25875;48.202;16.334;2022-10-04T01:14:41;99594.06;;;12.05;61.18
40155;BME280;25875;48.202;16.334;2022-10-04T01:17:13;99589.63;;;12.06;61.13
40155;BME280;25875;48.202;16.334;2022-10-04T01:19:49;99526.00;;;11.57;61.25
40155;BME280;25875;48.202;16.334;2022-10-04T01:22:33;99590.13;;;12.12;61.37
40155;BME280;25875;48.202;16.334;2022-10-04T01:25:02;99589.34;;;12.10;61.12
40155;BME280;25875;48.202;16.334;2022-10-04T01:27:33;99543.00;;;11.84;60.93
40155;BME280;25875;48.202;16.334;2022-10-04T01:30:03;99588.50;;;12.10;60.80
40155;BME280;25875;48.202;16.334;2022-10-04T01:32:32;99588.75;;;12.05;61.13
40155;BME280;25875;48.202;16.334;2022-10-04T01:35:00;99582.50;;;12.06;60.93
40155;BME280;25875;48.202;16.334;2022-10-04T01:37:27;99584.13;;;12.09;60.93
40155;BME280;25875;48.202;16.334;2022-10-04T01:39:56;99578.81;;;12.09;61.29
40155;BME280;25875;48.202;16.334;2022-10-04T01:42:29;99584.22;;;12.07;61.02
40155;BME280;25875;48.202;16.334;2022-10-04T01:45:03;99591.25;;;12.08;60.78
40155;BME280;25875;48.202;16.334;2022-10-04T01:47:39;99576.50;;;12.03;61.19
40155;BME280;25875;48.202;16.334;2022-10-04T01:50:11;99575.56;;;12.04;61.13
40155;BME280;25875;48.202;16.334;2022-10-04T01:52:42;99575.56;;;12.04;61.07
40155;BME280;25875;48.202;16.334;2022-10-04T01:55:14;99567.16;;;11.96;61.53
40155;BME280;25875;48.202;16.334;2022-10-04T01:57:46;99567.06;;;11.97;61.60
40155;BME280;25875;48.202;16.334;2022-10-04T02:00:16;99555.66;;;11.95;61.57
40155;BME280;25875;48.202;16.334;2022-10-04T02:02:48;99563.56;;;11.97;61.48
40155;BME280;25875;48.202;16.334;2022-10-04T02:05:23;99560.31;;;11.92;61.59
40155;BME280;25875;48.202;16.334;2022-10-04T02:07:55;99530.34;;;11.74;61.47
40155;BME280;25875;48.202;16.334;2022-10-04T02:10:24;99546.06;;;11.93;61.52
40155;BME280;25875;48.202;16.334;2022-10-04T02:12:53;99548.81;;;11.91;61.62
40155;BME280;25875;48.202;16.334;2022-10-04T02:15:22;99547.28;;;11.87;61.56
40155;BME280;25875;48.202;16.334;2022-10-04T02:17:53;99541.81;;;11.90;61.93
40155;BME280;25875;48.202;16.334;2022-10-04T02:20:25;99540.34;;;12.00;62.79
40155;BME280;25875;48.202;16.334;2022-10-04T02:22:55;99540.00;;;12.06;62.54
40155;BME280;25875;48.202;16.334;2022-10-04T02:25:26;99497.59;;;11.89;62.37
40155;BME280;25875;48.202;16.334;2022-10-04T02:27:53;99543.16;;;12.13;62.18
40155;BME280;25875;48.202;16.334;2022-10-04T02:30:22;99542.06;;;12.17;62.21
40155;BME280;25875;48.202;16.334;2022-10-04T02:32:52;99518.06;;;12.03;62.16
40155;BME280;25875;48.202;16.334;2022-10-04T02:35:27;99547.69;;;12.11;61.26
40155;BME280;25875;48.202;16.334;2022-10-04T02:38:08;99541.81;;;12.06;61.31
40155;BME280;25875;48.202;16.334;2022-10-04T02:40:46;99542.47;;;12.09;61.84
40155;BME280;25875;48.202;16.334;2022-10-04T02:43:19;99549.50;;;12.10;61.55
40155;BME280;25875;48.202;16.334;2022-10-04T02:45:52;99558.69;;;12.05;61.21
40155;BME280;25875;48.202;16.334;2022-10-04T02:48:33;99558.50;;;12.08;61.32
40155;BME280;25875;48.202;16.334;2022-10-04T02:51:13;99570.06;;;12.07;61.25
40155;BME280;25875;48.202;16.334;2022-10-04T02:53:47;99570.94;;;12.07;61.39
40155;BME280;25875;48.202;16.334;2022-10-04T02:56:18;99566.66;;;12.05;61.16
40155;BME280;25875;48.202;16.334;2022-10-04T02:58:47;99574.00;;;12.00;61.55
40155;BME280;25875;48.202;16.334;2022-10-04T03:01:22;99581.06;;;12.01;61.25
40155;BME280;25875;48.202;16.334;2022-10-04T03:03:52;99556.44;;;11.97;61.42
40155;BME280;25875;48.202;16.334;2022-10-04T03:06:22;99551.91;;;11.99;61.44
40155;BME280;25875;48.202;16.334;2022-10-04T03:08:56;99556.22;;;12.02;61.23
40155;BME280;25875;48.202;16.334;2022-10-04T03:11:28;99555.34;;;12.01;61.20
40155;BME280;25875;48.202;16.334;2022-10-04T03:13:59;99563.56;;;11.97;61.21
40155;BME280;25875;48.202;16.334;2022-10-04T03:16:33;99564.59;;;11.94;61.04
40155;BME280;25875;48.202;16.334;2022-10-04T03:19:02;99564.50;;;11.96;61.21
40155;BME280;25875;48.202;16.334;2022-10-04T03:21:31;99564.50;;;11.96;61.43
40155;BME280;25875;48.202;16.334;2022-10-04T03:24:00;99570.16;;;11.89;61.32
40155;BME280;25875;48.202;16.334;2022-10-04T03:26:33;99562.38;;;11.86;61.32
40155;BME280;25875;48.202;16.334;2022-10-04T03:29:04;99564.16;;;11.86;61.37
40155;BME280;25875;48.202;16.334;2022-10-04T03:31:38;99558.09;;;11.84;61.50
40155;BME280;25875;48.202;16.334;2022-10-04T03:34:12;99559.28;;;11.78;61.63
40155;BME280;25875;48.202;16.334;2022-10-04T03:36:40;99556.72;;;11.77;61.74
40155;BME280;25875;48.202;16.334;2022-10-04T03:39:09;99564.69;;;11.77;61.84
40155;BME280;25875;48.202;16.334;2022-10-04T03:41:39;99556.81;;;11.75;62.09
40155;BME280;25875;48.202;16.334;2022-10-04T03:44:13;99556.53;;;11.80;61.87
40155;BME280;25875;48.202;16.334;2022-10-04T03:46:42;99556.03;;;11.73;61.82
40155;BME280;25875;48.202;16.334;2022-10-04T03:49:12;99555.69;;;11.79;61.94
40155;BME280;25875;48.202;16.334;2022-10-04T03:51:45;99562.88;;;11.77;61.98
40155;BME280;25875;48.202;16.334;2022-10-04T03:54:16;99561.44;;;11.72;61.83
40155;BME280;25875;48.202;16.334;2022-10-04T03:56:47;99566.06;;;11.68;62.15
40155;BME280;25875;48.202;16.334;2022-10-04T03:59:16;99487.22;;;11.23;62.09
40155;BME280;25875;48.202;16.334;2022-10-04T04:01:46;99485.34;;;11.25;61.95
40155;BME280;25875;48.202;16.334;2022-10-04T04:04:18;99563.25;;;11.71;62.00
40155;BME280;25875;48.202;16.334;2022-10-04T04:06:55;99562.47;;;11.69;62.35
40155;BME280;25875;48.202;16.334;2022-10-04T04:09:36;99554.50;;;11.69;62.36
40155;BME280;25875;48.202;16.334;2022-10-04T04:12:10;99561.00;;;11.64;62.32
40155;BME280;25875;48.202;16.334;2022-10-04T04:14:47;99554.06;;;11.45;62.75
40155;BME280;25875;48.202;16.334;2022-10-04T04:17:20;99561.78;;;11.50;63.03
40155;BME280;25875;48.202;16.334;2022-10-04T04:19:58;99553.66;;;11.53;62.70
40155;BME280;25875;48.202;16.334;2022-10-04T04:22:26;99556.22;;;11.54;62.75
40155;BME280;25875;48.202;16.334;2022-10-04T04:24:58;99565.22;;;11.52;62.82
40155;BME280;25875;48.202;16.334;2022-10-04T04:27:29;99562.38;;;11.55;62.87
40155;BME280;25875;48.202;16.334;2022-10-04T04:30:00;99562.38;;;11.55;62.85
40155;BME280;25875;48.202;16.334;2022-10-04T04:32:32;99560.50;;;11.57;62.70
40155;BME280;25875;48.202;16.334;2022-10-04T04:35:03;99559.56;;;11.58;62.55
40155;BME280;25875;48.202;16.334;2022-10-04T04:37:34;99578.75;;;11.47;62.86
40155;BME280;25875;48.202;16.334;2022-10-04T04:40:15;99566.91;;;11.53;62.95
40155;BME280;25875;48.202;16.334;2022-10-04T04:42:47;99573.19;;;11.52;63.04
40155;BME280;25875;48.202;16.334;2022-10-04T04:45:18;99570.50;;;11.52;62.95
40155;BME280;25875;48.202;16.334;2022-10-04T04:47:49;99571.63;;;11.32;63.27
40155;BME280;25875;48.202;16.334;2022-10-04T04:50:18;99571.53;;;11.49;62.85
40155;BME280;25875;48.202;16.334;2022-10-04T04:52:47;99574.28;;;11.48;62.90
40155;BME280;25875;48.202;16.334;2022-10-04T04:55:18;99575.06;;;11.50;62.99
40155;BME280;25875;48.202;16.334;2022-10-04T04:57:48;99556.03;;;11.42;63.14
40155;BME280;25875;48.202;16.334;2022-10-04T05:00:17;99583.88;;;11.50;62.89
40155;BME280;25875;48.202;16.334;2022-10-04T05:02:52;99531.88;;;11.15;63.17
40155;BME280;25875;48.202;16.334;2022-10-04T05:05:23;99589.09;;;11.52;62.94
40155;BME280;25875;48.202;16.334;2022-10-04T05:08:10;99594.56;;;11.49;62.99
40155;BME280;25875;48.202;16.334;2022-10-04T05:10:40;99602.63;;;11.47;63.20
40155;BME280;25875;48.202;16.334;2022-10-04T05:13:10;99595.25;;;11.52;63.06
40155;BME280;25875;48.202;16.334;2022-10-04T05:15:40;99597.22;;;11.49;63.33
40155;BME280;25875;48.202;16.334;2022-10-04T05:18:25;99601.59;;;11.50;63.28
40155;BME280;25875;48.202;16.334;2022-10-04T05:20:57;99655.53;;;11.50;62.95
40155;BME280;25875;48.202;16.334;2022-10-04T05:23:24;99608.88;;;11.46;63.31
40155;BME280;25875;48.202;16.334;2022-10-04T05:25:52;99599.13;;;11.47;63.19
40155;BME280;25875;48.202;16.334;2022-10-04T05:28:20;99604.25;;;11.50;63.26
40155;BME280;25875;48.202;16.334;2022-10-04T05:31:04;99606.38;;;11.43;63.40
40155;BME280;25875;48.202;16.334;2022-10-04T05:33:44;99600.22;;;11.43;63.61
40155;BME280;25875;48.202;16.334;2022-10-04T05:36:38;99597.91;;;11.37;63.39
40155;BME280;25875;48.202;16.334;2022-10-04T05:39:19;99188.56;;;8.97;63.37
40155;BME280;25875;48.202;16.334;2022-10-04T05:41:55;99610.66;;;11.46;63.59
40155;BME280;25875;48.202;16.334;2022-10-04T05:44:26;99622.75;;;11.51;63.25
40155;BME280;25875;48.202;16.334;2022-10-04T05:46:55;99631.72;;;11.49;63.24
40155;BME280;25875;48.202;16.334;2022-10-04T05:49:24;99636.97;;;11.50;63.35
40155;BME280;25875;48.202;16.334;2022-10-04T05:51:55;99639.16;;;11.42;63.74
40155;BME280;25875;48.202;16.334;2022-10-04T05:54:27;99642.50;;;11.46;63.43
40155;BME280;25875;48.202;16.334;2022-10-04T05:57:13;99636.09;;;11.50;63.48
40155;BME280;25875;48.202;16.334;2022-10-04T06:00:07;99645.16;;;11.46;63.68
40155;BME280;25875;48.202;16.334;2022-10-04T06:05:34;99642.44;;;11.47;63.62
40155;BME280;25875;48.202;16.334;2022-10-04T06:08:10;99645.00;;;11.49;63.63
40155;BME280;25875;48.202;16.334;2022-10-04T06:10:49;99652.09;;;11.48;63.97
40155;BME280;25875;48.202;16.334;2022-10-04T06:13:31;99653.81;;;11.49;63.84
40155;BME280;25875;48.202;16.334;2022-10-04T06:16:13;99655.44;;;11.52;63.80
40155;BME280;25875;48.202;16.334;2022-10-04T06:19:01;99659.50;;;11.59;63.63
40155;BME280;25875;48.202;16.334;2022-10-04T06:21:36;99659.06;;;11.51;63.91
40155;BME280;25875;48.202;16.334;2022-10-04T06:24:10;99661.94;;;11.46;63.84
40155;BME280;25875;48.202;16.334;2022-10-04T06:26:42;99667.19;;;11.48;63.66
40155;BME280;25875;48.202;16.334;2022-10-04T06:29:13;99672.25;;;11.52;63.94
40155;BME280;25875;48.202;16.334;2022-10-04T06:32:05;99672.00;;;11.57;63.63
40155;BME280;25875;48.202;16.334;2022-10-04T06:34:59;99630.78;;;11.34;63.92
40155;BME280;25875;48.202;16.334;2022-10-04T06:38:05;99668.72;;;11.52;63.98
40155;BME280;25875;48.202;16.334;2022-10-04T06:40:47;99670.25;;;11.40;64.55
40155;BME280;25875;48.202;16.334;2022-10-04T06:43:35;99682.25;;;11.47;64.34
40155;BME280;25875;48.202;16.334;2022-10-04T06:46:10;99686.53;;;11.50;64.29
40155;BME280;25875;48.202;16.334;2022-10-04T06:49:08;99680.03;;;11.55;63.94
40155;BME280;25875;48.202;16.334;2022-10-04T06:51:55;99687.75;;;11.60;63.90
40155;BME280;25875;48.202;16.334;2022-10-04T06:54:36;99692.53;;;11.53;64.35
40155;BME280;25875;48.202;16.334;2022-10-04T06:57:34;99681.84;;;11.55;64.54
40155;BME280;25875;48.202;16.334;2022-10-04T07:00:13;99698.69;;;11.54;64.45
40155;BME280;25875;48.202;16.334;2022-10-04T07:02:51;99691.50;;;11.56;64.39
40155;BME280;25875;48.202;16.334;2022-10-04T07:05:28;99694.59;;;11.64;64.22
40155;BME280;25875;48.202;16.334;2022-10-04T07:08:05;99695.47;;;11.65;64.05
40155;BME280;25875;48.202;16.334;2022-10-04T07:10:44;99700.84;;;11.63;64.26
40155;BME280;25875;48.202;16.334;2022-10-04T07:16:02;99710.38;;;11.67;63.89
40155;BME280;25875;48.202;16.334;2022-10-04T07:18:34;99469.47;;;10.26;64.02
40155;BME280;25875;48.202;16.334;2022-10-04T07:21:08;99704.13;;;11.68;64.27
40155;BME280;25875;48.202;16.334;2022-10-04T07:23:44;99721.00;;;11.67;64.34
40155;BME280;25875;48.202;16.334;2022-10-04T07:26:21;99711.06;;;11.71;64.00
40155;BME280;25875;48.202;16.334;2022-10-04T07:28:50;99709.97;;;11.75;63.74
40155;BME280;25875;48.202;16.334;2022-10-04T07:31:39;99711.66;;;11.76;64.01
40155;BME280;25875;48.202;16.334;2022-10-04T07:34:09;99713.47;;;11.75;64.10
40155;BME280;25875;48.202;16.334;2022-10-04T07:36:43;99713.22;;;11.80;63.92
40155;BME280;25875;48.202;16.334;2022-10-04T07:39:13;99715.63;;;11.84;63.97
40155;BME280;25875;48.202;16.334;2022-10-04T07:41:49;99729.44;;;11.91;63.86
40155;BME280;25875;48.202;16.334;2022-10-04T07:44:32;99723.44;;;11.87;63.66
40155;BME280;25875;48.202;16.334;2022-10-04T07:47:04;99737.56;;;11.88;63.83
40155;BME280;25875;48.202;16.334;2022-10-04T07:49:37;99525.91;;;10.78;63.25
40155;BME280;25875;48.202;16.334;2022-10-04T07:52:25;99733.94;;;12.06;63.57
40155;BME280;25875;48.202;16.334;2022-10-04T07:55:01;99563.97;;;11.10;62.87
40155;BME280;25875;48.202;16.334;2022-10-04T07:57:40;99698.94;;;11.98;62.97
40155;BME280;25875;48.202;16.334;2022-10-04T08:00:16;99726.84;;;12.23;62.92
40155;BME280;25875;48.202;16.334;2022-10-04T08:03:00;99727.28;;;12.31;62.65
40155;BME280;25875;48.202;16.334;2022-10-04T08:05:36;99724.63;;;12.31;62.71
40155;BME280;25875;48.202;16.334;2022-10-04T08:08:20;99727.97;;;12.34;62.17
40155;BME280;25875;48.202;16.334;2022-10-04T08:10:55;99726.34;;;12.32;62.53
40155;BME280;25875;48.202;16.334;2022-10-04T08:13:36;99720.59;;;12.39;62.29
40155;BME280;25875;48.202;16.334;2022-10-04T08:16:15;99719.47;;;12.43;62.45
40155;BME280;25875;48.202;16.334;2022-10-04T08:18:54;99723.94;;;12.43;62.49
40155;BME280;25875;48.202;16.334;2022-10-04T08:21:32;99736.19;;;12.45;62.38
40155;BME280;25875;48.202;16.334;2022-10-04T08:24:14;99723.66;;;12.47;62.08
40155;BME280;25875;48.202;16.334;2022-10-04T08:27:00;99721.09;;;12.46;61.83
40155;BME280;25875;48.202;16.334;2022-10-04T08:29:47;99726.91;;;12.52;61.87
40155;BME280;25875;48.202;16.334;2022-10-04T08:32:28;99719.72;;;12.55;61.84
40155;BME280;25875;48.202;16.334;2022-10-04T08:35:18;99726.56;;;12.59;61.56
40155;BME280;25875;48.202;16.334;2022-10-04T08:38:05;99615.31;;;11.89;61.73
40155;BME280;25875;48.202;16.334;2022-10-04T08:44:13;99732.56;;;12.62;61.65
40155;BME280;25875;48.202;16.334;2022-10-04T08:53:26;99735.81;;;12.67;61.87
40155;BME280;25875;48.202;16.334;2022-10-04T08:56:08;99736.50;;;12.71;61.76
40155;BME280;25875;48.202;16.334;2022-10-04T08:59:11;99731.69;;;12.77;61.52
40155;BME280;25875;48.202;16.334;2022-10-04T09:01:51;99729.28;;;12.73;61.38
40155;BME280;25875;48.202;16.334;2022-10-04T09:07:55;99732.34;;;12.81;61.47
40155;BME280;25875;48.202;16.334;2022-10-04T09:10:47;99725.91;;;12.85;61.24
40155;BME280;25875;48.202;16.334;2022-10-04T09:13:29;99731.06;;;12.88;61.41
40155;BME280;25875;48.202;16.334;2022-10-04T09:16:17;99741.25;;;12.96;61.45
40155;BME280;25875;48.202;16.334;2022-10-04T09:18:49;99745.69;;;12.95;61.16
40155;BME280;25875;48.202;16.334;2022-10-04T09:21:26;99740.78;;;13.03;61.54
40155;BME280;25875;48.202;16.334;2022-10-04T09:24:19;99738.72;;;13.08;61.50
40155;BME280;25875;48.202;16.334;2022-10-04T09:26:59;99735.09;;;13.09;61.10
40155;BME280;25875;48.202;16.334;2022-10-04T09:29:46;99553.00;;;12.11;60.91
40155;BME280;25875;48.202;16.334;2022-10-04T09:32:38;99732.75;;;13.19;61.25
40155;BME280;25875;48.202;16.334;2022-10-04T09:35:24;99742.34;;;13.22;60.72
40155;BME280;25875;48.202;16.334;2022-10-04T09:38:08;99737.81;;;13.24;60.52
40155;BME280;25875;48.202;16.334;2022-10-04T09:41:27;99751.59;;;13.30;60.91
40155;BME280;25875;48.202;16.334;2022-10-04T09:47:13;99744.84;;;13.39;60.92
40155;BME280;25875;48.202;16.334;2022-10-04T09:50:16;99746.13;;;13.47;60.47
40155;BME280;25875;48.202;16.334;2022-10-04T09:52:54;99694.72;;;13.17;60.76
40155;BME280;25875;48.202;16.334;2022-10-04T09:55:35;99748.06;;;13.60;59.89
40155;BME280;25875;48.202;16.334;2022-10-04T09:58:32;99735.41;;;13.63;60.03
40155;BME280;25875;48.202;16.334;2022-10-04T10:01:12;99746.63;;;13.83;59.47
40155;BME280;25875;48.202;16.334;2022-10-04T10:04:03;99743.88;;;13.98;59.60
40155;BME280;25875;48.202;16.334;2022-10-04T10:07:04;99751.00;;;14.12;58.96
40155;BME280;25875;48.202;16.334;2022-10-04T10:09:39;99752.59;;;14.15;58.47
40155;BME280;25875;48.202;16.334;2022-10-04T10:12:57;99758.41;;;14.21;58.90
40155;BME280;25875;48.202;16.334;2022-10-04T10:15:54;99755.50;;;14.38;58.43
40155;BME280;25875;48.202;16.334;2022-10-04T10:18:33;99743.59;;;14.44;57.95
40155;BME280;25875;48.202;16.334;2022-10-04T10:21:18;99757.56;;;14.76;58.01
40155;BME280;25875;48.202;16.334;2022-10-04T10:24:03;99755.91;;;15.00;57.25
40155;BME280;25875;48.202;16.334;2022-10-04T10:26:51;99761.84;;;15.18;55.88
40155;BME280;25875;48.202;16.334;2022-10-04T10:30:03;99744.88;;;15.32;55.78
40155;BME280;25875;48.202;16.334;2022-10-04T10:32:54;99758.13;;;15.46;55.78
40155;BME280;25875;48.202;16.334;2022-10-04T10:39:02;99766.34;;;15.30;54.92
40155;BME280;25875;48.202;16.334;2022-10-04T10:41:47;99761.31;;;15.26;55.24
40155;BME280;25875;48.202;16.334;2022-10-04T10:44:30;99761.31;;;15.26;55.58
40155;BME280;25875;48.202;16.334;2022-10-04T10:47:21;99758.09;;;15.21;54.97
40155;BME280;25875;48.202;16.334;2022-10-04T10:50:02;99754.38;;;15.23;56.12
40155;BME280;25875;48.202;16.334;2022-10-04T10:59:26;99757.28;;;15.46;55.63
40155;BME280;25875;48.202;16.334;2022-10-04T11:05:58;99757.00;;;15.76;55.10
40155;BME280;25875;48.202;16.334;2022-10-04T11:18:09;99744.06;;;15.69;54.74
40155;BME280;25875;48.202;16.334;2022-10-04T11:21:01;99758.16;;;15.84;54.59
40155;BME280;25875;48.202;16.334;2022-10-04T11:29:52;99745.75;;;15.96;53.47
40155;BME280;25875;48.202;16.334;2022-10-04T11:36:09;99742.31;;;16.07;53.40
40155;BME280;25875;48.202;16.334;2022-10-04T11:38:55;99739.97;;;16.02;52.93
40155;BME280;25875;48.202;16.334;2022-10-04T11:41:34;99728.56;;;15.87;52.84
40155;BME280;25875;48.202;16.334;2022-10-04T11:44:31;99737.00;;;15.94;52.55
40155;BME280;25875;48.202;16.334;2022-10-04T11:47:14;99737.22;;;15.91;54.10
40155;BME280;25875;48.202;16.334;2022-10-04T11:49:58;99747.78;;;15.92;53.59
40155;BME280;25875;48.202;16.334;2022-10-04T11:53:05;99750.16;;;15.84;53.55
40155;BME280;25875;48.202;16.334;2022-10-04T11:55:54;99750.69;;;15.77;53.30
40155;BME280;25875;48.202;16.334;2022-10-04T12:01:44;99731.75;;;15.92;53.40
40155;BME280;25875;48.202;16.334;2022-10-04T12:04:30;99740.72;;;16.04;53.54
40155;BME280;25875;48.202;16.334;2022-10-04T12:07:18;99724.22;;;16.10;52.60
40155;BME280;25875;48.202;16.334;2022-10-04T12:09:58;99708.44;;;15.94;52.62
40155;BME280;25875;48.202;16.334;2022-10-04T12:12:53;99721.25;;;16.02;52.29
40155;BME280;25875;48.202;16.334;2022-10-04T12:15:39;99677.78;;;15.75;53.41
40155;BME280;25875;48.202;16.334;2022-10-04T12:18:32;99722.09;;;16.15;53.96
40155;BME280;25875;48.202;16.334;2022-10-04T12:21:19;99719.25;;;16.29;53.23
40155;BME280;25875;48.202;16.334;2022-10-04T12:24:13;99708.13;;;16.35;52.87
40155;BME280;25875;48.202;16.334;2022-10-04T12:27:20;99692.50;;;16.29;52.29
40155;BME280;25875;48.202;16.334;2022-10-04T12:30:08;99664.66;;;16.08;52.30
40155;BME280;25875;48.202;16.334;2022-10-04T12:32:50;99716.03;;;16.61;52.02
40155;BME280;25875;48.202;16.334;2022-10-04T12:35:25;99715.88;;;16.51;51.69
40155;BME280;25875;48.202;16.334;2022-10-04T12:40:56;99650.78;;;16.03;51.48
40155;BME280;25875;48.202;16.334;2022-10-04T12:43:44;99729.53;;;16.59;51.45
40155;BME280;25875;48.202;16.334;2022-10-04T12:46:27;99730.72;;;16.55;51.71
40155;BME280;25875;48.202;16.334;2022-10-04T12:49:07;97885.06;;;5.56;51.86
40155;BME280;25875;48.202;16.334;2022-10-04T12:51:48;99728.22;;;16.65;51.63
40155;BME280;25875;48.202;16.334;2022-10-04T12:54:31;99723.19;;;16.73;52.47
40155;BME280;25875;48.202;16.334;2022-10-04T12:57:16;99720.91;;;16.80;51.14
40155;BME280;25875;48.202;16.334;2022-10-04T12:59:55;99651.50;;;16.42;51.95
40155;BME280;25875;48.202;16.334;2022-10-04T13:02:49;99722.31;;;16.96;50.64
40155;BME280;25875;48.202;16.334;2022-10-04T13:05:24;99711.00;;;17.04;50.73
40155;BME280;25875;48.202;16.334;2022-10-04T13:08:05;99726.19;;;16.92;50.20
40155;BME280;25875;48.202;16.334;2022-10-04T13:10:46;99722.53;;;16.93;51.05
40155;BME280;25875;48.202;16.334;2022-10-04T13:16:27;99728.41;;;16.98;51.18
40155;BME280;25875;48.202;16.334;2022-10-04T13:19:08;99723.38;;;16.94;50.64
40155;BME280;25875;48.202;16.334;2022-10-04T13:24:51;99720.22;;;16.89;50.48
40155;BME280;25875;48.202;16.334;2022-10-04T13:27:36;99723.22;;;16.84;50.56
40155;BME280;25875;48.202;16.334;2022-10-04T13:30:17;99716.28;;;16.82;50.79
40155;BME280;25875;48.202;16.334;2022-10-04T13:32:57;99720.63;;;16.72;50.40
40155;BME280;25875;48.202;16.334;2022-10-04T13:35:31;99722.72;;;16.79;51.01
40155;BME280;25875;48.202;16.334;2022-10-04T13:38:22;99733.94;;;16.84;50.29
40155;BME280;25875;48.202;16.334;2022-10-04T13:41:10;99731.41;;;16.94;50.81
40155;BME280;25875;48.202;16.334;2022-10-04T13:44:11;99731.59;;;17.04;50.40
40155;BME280;25875;48.202;16.334;2022-10-04T13:46:48;99733.63;;;17.00;51.06
40155;BME280;25875;48.202;16.334;2022-10-04T13:49:29;99730.09;;;16.99;49.49
40155;BME280;25875;48.202;16.334;2022-10-04T13:52:09;99727.19;;;17.03;50.16
40155;BME280;25875;48.202;16.334;2022-10-04T13:55:08;99725.03;;;17.08;49.99
40155;BME280;25875;48.202;16.334;2022-10-04T13:58:00;99727.22;;;17.14;49.35
40155;BME280;25875;48.202;16.334;2022-10-04T14:00:48;99699.84;;;17.10;48.64
40155;BME280;25875;48.202;16.334;2022-10-04T14:03:37;99715.50;;;17.27;48.56
40155;BME280;25875;48.202;16.334;2022-10-04T14:09:21;99719.66;;;17.43;47.88
40155;BME280;25875;48.202;16.334;2022-10-04T14:15:21;99648.47;;;17.05;48.46
40155;BME280;25875;48.202;16.334;2022-10-04T14:18:11;99719.69;;;17.54;47.72
40155;BME280;25875;48.202;16.334;2022-10-04T14:21:21;99642.75;;;17.10;47.47
40155;BME280;25875;48.202;16.334;2022-10-04T14:24:31;99723.22;;;17.54;47.73
40155;BME280;25875;48.202;16.334;2022-10-04T14:27:34;99705.66;;;17.39;47.91
40155;BME280;25875;48.202;16.334;2022-10-04T14:30:15;99726.00;;;17.53;48.18
40155;BME280;25875;48.202;16.334;2022-10-04T14:33:25;99424.56;;;15.78;46.98
40155;BME280;25875;48.202;16.334;2022-10-04T14:39:23;99714.03;;;17.35;46.72
40155;BME280;25875;48.202;16.334;2022-10-04T14:48:28;99717.09;;;17.30;47.01
40155;BME280;25875;48.202;16.334;2022-10-04T14:51:23;99717.31;;;17.27;46.43
40155;BME280;25875;48.202;16.334;2022-10-04T14:54:00;99710.38;;;17.24;48.37
40155;BME280;25875;48.202;16.334;2022-10-04T14:56:50;99708.66;;;17.23;48.08
40155;BME280;25875;48.202;16.334;2022-10-04T14:59:59;99714.69;;;17.14;47.64
40155;BME280;25875;48.202;16.334;2022-10-04T15:03:03;99716.25;;;17.06;47.83
40155;BME280;25875;48.202;16.334;2022-10-04T15:09:05;99705.78;;;17.03;47.43
40155;BME280;25875;48.202;16.334;2022-10-04T15:11:43;99180.41;;;13.28;48.09
40155;BME280;25875;48.202;16.334;2022-10-04T15:14:29;99711.00;;;17.04;47.52
40155;BME280;25875;48.202;16.334;2022-10-04T15:17:03;99687.72;;;16.93;47.90
40155;BME280;25875;48.202;16.334;2022-10-04T15:19:42;99708.44;;;17.03;47.81
40155;BME280;25875;48.202;16.334;2022-10-04T15:22:22;99716.72;;;16.99;47.15
40155;BME280;25875;48.202;16.334;2022-10-04T15:24:53;99697.31;;;16.85;48.70